Scotia — MXHR6 — position and weather

sailwx.info

Track history (hours):
 
Tides and Currents Weather Stations Pressure Air Temp Water Temp Dewpoint Dewpoint Depression Visibility Wind Speed Wind Dir Waves Ship Positions

Oceanographic research ship Scotia (UK)

Detailed information on ship capabilities available from University of Delaware's Ocean Information Center.

Last reported at 2019-Jun-19 01:41 UTC. Time now 2019-Jun-19 21:30 UTC.
Position N 58°04' W 005°32'.

Length 68.6 m; beam 15 m; draft 5.6 m.

Type: Other ship. MMSI: 234973000.

Date/timePositionNaut miles runAvg speedWind from/ knotsBaromVisibWave heightAir tempDewpointWater temp
2019-Jun-19 01:41N 58°04' W 005°32'24 2.9
2019-Jun-18 17:28N 57°44' W 005°54'0 0.6
2019-Jun-18 16:58N 57°44' W 005°53'2 2.2
2019-Jun-18 15:59N 57°43' W 005°57'4 5.5
2019-Jun-18 15:13N 57°39' W 005°56'0 0.5
2019-Jun-18 15:00N 57°39' W 005°55'4 3.2
2019-Jun-18 13:53N 57°38' W 006°02'1 2.4
2019-Jun-18 13:30N 57°39' W 006°02'1 1.4
2019-Jun-18 12:57N 57°40' W 006°02'4 3.4
2019-Jun-18 11:37N 57°41' W 006°10'116 2.4
2019-Jun-16 10:52N 55°45' W 006°01'410.8
2019-Jun-16 10:29N 55°42' W 005°58'511.3
2019-Jun-16 10:00N 55°36' W 005°57'611.1
2019-Jun-16 09:30N 55°31' W 005°56'510.4
2019-Jun-16 09:01N 55°25' W 005°56'5 9.4
2019-Jun-16 08:30N 55°21' W 005°53'4 8.0
2019-Jun-16 08:00N 55°17' W 005°50'3 6.1
2019-Jun-16 07:30N 55°16' W 005°45'4 7.3
2019-Jun-16 06:56N 55°15' W 005°38'25 1.1
2019-Jun-15 09:17N 54°51' W 005°30'310.3
2019-Jun-15 09:00N 54°49' W 005°34'510.7
2019-Jun-15 08:30N 54°44' W 005°39'5 9.8
2019-Jun-15 08:00N 54°42' W 005°46'5 9.9
2019-Jun-15 07:30N 54°38' W 005°53'2 3.9
2019-Jun-15 06:58N 54°37' W 005°55'0 0.0
2019-Jun-15 06:30N 54°37' W 005°55'0 0.0
2019-Jun-15 06:00N 54°37' W 005°55'0 0.0
2019-Jun-15 05:30N 54°37' W 005°55'0 0.0
2019-Jun-15 05:00N 54°37' W 005°55'0 0.0
2019-Jun-15 04:30N 54°37' W 005°55'0 0.0
2019-Jun-15 04:00N 54°37' W 005°55'0 0.0
2019-Jun-15 03:30N 54°37' W 005°55'0 0.0
2019-Jun-15 03:00N 54°37' W 005°55'0 0.0
2019-Jun-15 02:30N 54°37' W 005°55'0 0.0
2019-Jun-15 02:00N 54°37' W 005°55'0 0.0
2019-Jun-15 01:30N 54°37' W 005°55'0 0.0
2019-Jun-15 01:00N 54°37' W 005°55'0 0.0
2019-Jun-15 00:30N 54°37' W 005°55'0 0.0
2019-Jun-15 00:00N 54°37' W 005°55'0 0.0
2019-Jun-14 23:30N 54°37' W 005°55'0 0.0
2019-Jun-14 23:00N 54°37' W 005°55'0 0.0
2019-Jun-14 22:30N 54°37' W 005°55'0 0.0
2019-Jun-14 22:00N 54°37' W 005°55'0 0.0
2019-Jun-14 21:30N 54°37' W 005°55'0 0.0
2019-Jun-14 21:00N 54°37' W 005°55'0 0.0
2019-Jun-14 20:30N 54°37' W 005°55'0 0.0
2019-Jun-14 20:00N 54°37' W 005°55'0 0.0
2019-Jun-14 19:30N 54°37' W 005°55'0 0.0
2019-Jun-14 19:00N 54°37' W 005°55'0 0.0
2019-Jun-14 18:30N 54°37' W 005°55'0 0.0
2019-Jun-14 18:00N 54°37' W 005°55'0 0.0
2019-Jun-14 17:30N 54°37' W 005°55'0 0.0
2019-Jun-14 17:00N 54°37' W 005°55'0 0.0
2019-Jun-14 16:30N 54°37' W 005°55'0 0.0
2019-Jun-14 16:00N 54°37' W 005°55'0 0.0
2019-Jun-14 15:27N 54°37' W 005°55'0 0.0
2019-Jun-14 14:57N 54°37' W 005°55'0 0.0
2019-Jun-14 14:30N 54°37' W 005°55'0 0.0
2019-Jun-14 14:00N 54°37' W 005°55'0 0.0
2019-Jun-14 13:30N 54°37' W 005°55'0 0.0
2019-Jun-14 12:57N 54°37' W 005°55'0 0.0
2019-Jun-14 12:30N 54°37' W 005°55'0 0.0
2019-Jun-14 12:00N 54°37' W 005°55'0 0.0
2019-Jun-14 11:30N 54°37' W 005°55'0 0.0
2019-Jun-14 11:00N 54°37' W 005°55'0 0.0
2019-Jun-14 10:30N 54°37' W 005°55'0 0.0
2019-Jun-14 10:00N 54°37' W 005°55'0 0.0
2019-Jun-14 09:30N 54°37' W 005°55'0 0.0
2019-Jun-14 08:57N 54°37' W 005°55'0 0.0
2019-Jun-14 08:30N 54°37' W 005°55'0 0.0
2019-Jun-14 08:00N 54°37' W 005°55'0 0.0
2019-Jun-14 07:30N 54°37' W 005°55'0 0.2
2019-Jun-14 07:00N 54°37' W 005°55'3 5.6
2019-Jun-14 06:30N 54°39' W 005°52'3 6.8
2019-Jun-14 06:00N 54°41' W 005°48'5 9.8
2019-Jun-14 05:30N 54°44' W 005°41'4 7.1
2019-Jun-14 05:00N 54°47' W 005°37'5 9.1
2019-Jun-14 04:30N 54°51' W 005°33'4 7.5
2019-Jun-14 03:59N 54°55' W 005°31'49 4.4
2019-Jun-13 16:47N 55°40' W 004°55'2 4.0
2019-Jun-13 16:12N 55°41' W 004°59'1 7.3
2019-Jun-13 16:00N 55°41' W 005°01'2 3.5
2019-Jun-13 15:30N 55°39' W 005°03'2 2.7
2019-Jun-13 14:39N 55°38' W 005°06'1 9.7
2019-Jun-13 14:30N 55°39' W 005°06'1 1.7
2019-Jun-13 13:50N 55°40' W 005°06'3 9.4
2019-Jun-13 13:30N 55°43' W 005°09'2 4.1
2019-Jun-13 13:00N 55°45' W 005°10'3 5.6
2019-Jun-13 12:29N 55°47' W 005°14'0 0.6
2019-Jun-13 11:53N 55°46' W 005°14'2 2.8
2019-Jun-13 11:04N 55°45' W 005°18'5 9.3
2019-Jun-13 10:29N 55°42' W 005°25'0 0.6
2019-Jun-13 09:59N 55°41' W 005°25'8 5.0
2019-Jun-13 08:23N 55°33' W 005°23'2 2.1
2019-Jun-13 07:29N 55°31' W 005°24'19 2.0
2019-Jun-12 22:01N 55°15' W 005°40'1 8.3
2019-Jun-12 21:53N 55°15' W 005°42'3 8.1
2019-Jun-12 21:30N 55°16' W 005°47'4 7.1
2019-Jun-12 21:00N 55°19' W 005°52'5 9.1
2019-Jun-12 20:26N 55°24' W 005°54'410.1
2019-Jun-12 20:00N 55°28' W 005°55'510.7
2019-Jun-12 19:30N 55°33' W 005°55'511.0
2019-Jun-12 19:00N 55°39' W 005°55'1 2.2
2019-Jun-12 18:30N 55°40' W 005°55'2 3.0
2019-Jun-12 18:00N 55°38' W 005°54'2 3.1
2019-Jun-12 17:30N 55°37' W 005°55'3 5.2
2019-Jun-12 17:00N 55°34' W 005°54'1 2.7
2019-Jun-12 16:31N 55°33' W 005°54'0 0.5
2019-Jun-12 16:00N 55°33' W 005°54'2 3.4
2019-Jun-12 15:30N 55°35' W 005°53'0 0.4
2019-Jun-12 15:00N 55°35' W 005°53'510.4
2019-Jun-12 14:30N 55°38' W 006°00'1 1.0
2019-Jun-12 14:00N 55°38' W 006°01'3 6.2
2019-Jun-12 13:30N 55°38' W 005°55'1 1.6
2019-Jun-12 12:55N 55°39' W 005°55'0 0.7
2019-Jun-12 12:30N 55°39' W 005°55'2 3.4
2019-Jun-12 12:00N 55°39' W 005°52'0 0.6
2019-Jun-12 11:30N 55°39' W 005°52'4 6.9
2019-Jun-12 10:54N 55°43' W 005°48'1 3.8
2019-Jun-12 10:30N 55°44' W 005°47'2 3.9
2019-Jun-12 09:55N 55°46' W 005°49'0 0.6
2019-Jun-12 09:18N 55°45' W 005°50'2 7.2
2019-Jun-12 08:57N 55°47' W 005°47'0 0.8
2019-Jun-12 08:30N 55°47' W 005°47'4 5.8
2019-Jun-12 07:49N 55°46' W 005°54'1 1.5
2019-Jun-12 07:27N 55°46' W 005°55'4 3.6
2019-Jun-12 06:24N 55°46' W 006°01'  
2019-Jun-08 12:17N 58°39' W 004°29'3 9.9
2019-Jun-08 12:01N 58°39' W 004°23'510.0
2019-Jun-08 11:30N 58°39' W 004°14'5 9.9
2019-Jun-08 11:00N 58°38' W 004°04'510.1
2019-Jun-08 10:30N 58°38' W 003°55'510.4
2019-Jun-08 10:00N 58°38' W 003°45'510.4
2019-Jun-08 09:30N 58°38' W 003°35'2 1.8
2019-Jun-08 08:22N 58°37' W 003°32'3 7.0
2019-Jun-08 07:53N 58°39' W 003°29'410.5
2019-Jun-08 07:30N 58°42' W 003°22'611.9
2019-Jun-08 06:59N 58°43' W 003°11'613.5
2019-Jun-08 06:31N 58°40' W 002°60'3 6.8
2019-Jun-08 06:00N 58°38' W 002°55'3 5.5
2019-Jun-08 05:30N 58°37' W 002°50'3 6.6
2019-Jun-08 05:00N 58°34' W 002°46'3 6.2
2019-Jun-08 04:30N 58°32' W 002°42'3 6.3
2019-Jun-08 04:00N 58°30' W 002°38'3 5.8
2019-Jun-08 03:30N 58°28' W 002°33'3 6.2
2019-Jun-08 03:00N 58°26' W 002°29'3 6.2
2019-Jun-08 02:30N 58°24' W 002°24'3 6.2
2019-Jun-08 02:00N 58°22' W 002°20'3 6.2
2019-Jun-08 01:30N 58°20' W 002°15'3 6.2
2019-Jun-08 00:57N 58°17' W 002°10'3 6.2
2019-Jun-08 00:27N 58°15' W 002°06'3 6.6
2019-Jun-08 00:00N 58°14' W 002°02'3 6.6
2019-Jun-07 23:30N 58°12' W 001°57'3 2.9
2019-Jun-07 22:33N 58°10' W 001°53'57 3.9
2019-Jun-07 07:55N 58°38' W 000°18'13 7.3
2019-Jun-07 06:06N 58°51' W 000°21'1 7.1
2019-Jun-07 05:58N 58°51' W 000°23'4 4.3
2019-Jun-07 05:04N 58°50' W 000°30'  
Track history (hours):
 
Tides and Currents Weather Stations Pressure Air Temp Water Temp Dewpoint Dewpoint Depression Visibility Wind Speed Wind Dir Waves Ship Positions

Oceanographic research ship Scotia (UK)

Detailed information on ship capabilities available from University of Delaware's Ocean Information Center.

Last reported at 2019-Jun-19 01:41 UTC. Time now 2019-Jun-19 21:30 UTC.
Position N 58°04' W 005°32'.

Length 68.6 m; beam 15 m; draft 5.6 m.

Type: Other ship. MMSI: 234973000.

Date/timePositionNaut miles runAvg speedWind from/ knotsBaromVisibWave heightAir tempDewpointWater temp
2019-Jun-19 01:41N 58°04' W 005°32'24 2.9
2019-Jun-18 17:28N 57°44' W 005°54'0 0.6
2019-Jun-18 16:58N 57°44' W 005°53'2 2.2
2019-Jun-18 15:59N 57°43' W 005°57'4 5.5
2019-Jun-18 15:13N 57°39' W 005°56'0 0.5
2019-Jun-18 15:00N 57°39' W 005°55'4 3.2
2019-Jun-18 13:53N 57°38' W 006°02'1 2.4
2019-Jun-18 13:30N 57°39' W 006°02'1 1.4
2019-Jun-18 12:57N 57°40' W 006°02'4 3.4
2019-Jun-18 11:37N 57°41' W 006°10'116 2.4
2019-Jun-16 10:52N 55°45' W 006°01'410.8
2019-Jun-16 10:29N 55°42' W 005°58'511.3
2019-Jun-16 10:00N 55°36' W 005°57'611.1
2019-Jun-16 09:30N 55°31' W 005°56'510.4
2019-Jun-16 09:01N 55°25' W 005°56'5 9.4
2019-Jun-16 08:30N 55°21' W 005°53'4 8.0
2019-Jun-16 08:00N 55°17' W 005°50'3 6.1
2019-Jun-16 07:30N 55°16' W 005°45'4 7.3
2019-Jun-16 06:56N 55°15' W 005°38'25 1.1
2019-Jun-15 09:17N 54°51' W 005°30'310.3
2019-Jun-15 09:00N 54°49' W 005°34'510.7
2019-Jun-15 08:30N 54°44' W 005°39'5 9.8
2019-Jun-15 08:00N 54°42' W 005°46'5 9.9
2019-Jun-15 07:30N 54°38' W 005°53'2 3.9
2019-Jun-15 06:58N 54°37' W 005°55'0 0.0
2019-Jun-15 06:30N 54°37' W 005°55'0 0.0
2019-Jun-15 06:00N 54°37' W 005°55'0 0.0
2019-Jun-15 05:30N 54°37' W 005°55'0 0.0
2019-Jun-15 05:00N 54°37' W 005°55'0 0.0
2019-Jun-15 04:30N 54°37' W 005°55'0 0.0
2019-Jun-15 04:00N 54°37' W 005°55'0 0.0
2019-Jun-15 03:30N 54°37' W 005°55'0 0.0
2019-Jun-15 03:00N 54°37' W 005°55'0 0.0
2019-Jun-15 02:30N 54°37' W 005°55'0 0.0
2019-Jun-15 02:00N 54°37' W 005°55'0 0.0
2019-Jun-15 01:30N 54°37' W 005°55'0 0.0
2019-Jun-15 01:00N 54°37' W 005°55'0 0.0
2019-Jun-15 00:30N 54°37' W 005°55'0 0.0
2019-Jun-15 00:00N 54°37' W 005°55'0 0.0
2019-Jun-14 23:30N 54°37' W 005°55'0 0.0
2019-Jun-14 23:00N 54°37' W 005°55'0 0.0
2019-Jun-14 22:30N 54°37' W 005°55'0 0.0
2019-Jun-14 22:00N 54°37' W 005°55'0 0.0
2019-Jun-14 21:30N 54°37' W 005°55'0 0.0
2019-Jun-14 21:00N 54°37' W 005°55'0 0.0
2019-Jun-14 20:30N 54°37' W 005°55'0 0.0
2019-Jun-14 20:00N 54°37' W 005°55'0 0.0
2019-Jun-14 19:30N 54°37' W 005°55'0 0.0
2019-Jun-14 19:00N 54°37' W 005°55'0 0.0
2019-Jun-14 18:30N 54°37' W 005°55'0 0.0
2019-Jun-14 18:00N 54°37' W 005°55'0 0.0
2019-Jun-14 17:30N 54°37' W 005°55'0 0.0
2019-Jun-14 17:00N 54°37' W 005°55'0 0.0
2019-Jun-14 16:30N 54°37' W 005°55'0 0.0
2019-Jun-14 16:00N 54°37' W 005°55'0 0.0
2019-Jun-14 15:27N 54°37' W 005°55'0 0.0
2019-Jun-14 14:57N 54°37' W 005°55'0 0.0
2019-Jun-14 14:30N 54°37' W 005°55'0 0.0
2019-Jun-14 14:00N 54°37' W 005°55'0 0.0
2019-Jun-14 13:30N 54°37' W 005°55'0 0.0
2019-Jun-14 12:57N 54°37' W 005°55'0 0.0
2019-Jun-14 12:30N 54°37' W 005°55'0 0.0
2019-Jun-14 12:00N 54°37' W 005°55'0 0.0
2019-Jun-14 11:30N 54°37' W 005°55'0 0.0
2019-Jun-14 11:00N 54°37' W 005°55'0 0.0
2019-Jun-14 10:30N 54°37' W 005°55'0 0.0
2019-Jun-14 10:00N 54°37' W 005°55'0 0.0
2019-Jun-14 09:30N 54°37' W 005°55'0 0.0
2019-Jun-14 08:57N 54°37' W 005°55'0 0.0
2019-Jun-14 08:30N 54°37' W 005°55'0 0.0
2019-Jun-14 08:00N 54°37' W 005°55'0 0.0
2019-Jun-14 07:30N 54°37' W 005°55'0 0.2
2019-Jun-14 07:00N 54°37' W 005°55'3 5.6
2019-Jun-14 06:30N 54°39' W 005°52'3 6.8
2019-Jun-14 06:00N 54°41' W 005°48'5 9.8
2019-Jun-14 05:30N 54°44' W 005°41'4 7.1
2019-Jun-14 05:00N 54°47' W 005°37'5 9.1
2019-Jun-14 04:30N 54°51' W 005°33'4 7.5
2019-Jun-14 03:59N 54°55' W 005°31'49 4.4
2019-Jun-13 16:47N 55°40' W 004°55'2 4.0
2019-Jun-13 16:12N 55°41' W 004°59'1 7.3
2019-Jun-13 16:00N 55°41' W 005°01'2 3.5
2019-Jun-13 15:30N 55°39' W 005°03'2 2.7
2019-Jun-13 14:39N 55°38' W 005°06'1 9.7
2019-Jun-13 14:30N 55°39' W 005°06'1 1.7
2019-Jun-13 13:50N 55°40' W 005°06'3 9.4
2019-Jun-13 13:30N 55°43' W 005°09'2 4.1
2019-Jun-13 13:00N 55°45' W 005°10'3 5.6
2019-Jun-13 12:29N 55°47' W 005°14'0 0.6
2019-Jun-13 11:53N 55°46' W 005°14'2 2.8
2019-Jun-13 11:04N 55°45' W 005°18'5 9.3
2019-Jun-13 10:29N 55°42' W 005°25'0 0.6
2019-Jun-13 09:59N 55°41' W 005°25'8 5.0
2019-Jun-13 08:23N 55°33' W 005°23'2 2.1
2019-Jun-13 07:29N 55°31' W 005°24'19 2.0
2019-Jun-12 22:01N 55°15' W 005°40'1 8.3
2019-Jun-12 21:53N 55°15' W 005°42'3 8.1
2019-Jun-12 21:30N 55°16' W 005°47'4 7.1
2019-Jun-12 21:00N 55°19' W 005°52'5 9.1
2019-Jun-12 20:26N 55°24' W 005°54'410.1
2019-Jun-12 20:00N 55°28' W 005°55'510.7
2019-Jun-12 19:30N 55°33' W 005°55'511.0
2019-Jun-12 19:00N 55°39' W 005°55'1 2.2
2019-Jun-12 18:30N 55°40' W 005°55'2 3.0
2019-Jun-12 18:00N 55°38' W 005°54'2 3.1
2019-Jun-12 17:30N 55°37' W 005°55'3 5.2
2019-Jun-12 17:00N 55°34' W 005°54'1 2.7
2019-Jun-12 16:31N 55°33' W 005°54'0 0.5
2019-Jun-12 16:00N 55°33' W 005°54'2 3.4
2019-Jun-12 15:30N 55°35' W 005°53'0 0.4
2019-Jun-12 15:00N 55°35' W 005°53'510.4
2019-Jun-12 14:30N 55°38' W 006°00'1 1.0
2019-Jun-12 14:00N 55°38' W 006°01'3 6.2
2019-Jun-12 13:30N 55°38' W 005°55'1 1.6
2019-Jun-12 12:55N 55°39' W 005°55'0 0.7
2019-Jun-12 12:30N 55°39' W 005°55'2 3.4
2019-Jun-12 12:00N 55°39' W 005°52'0 0.6
2019-Jun-12 11:30N 55°39' W 005°52'4 6.9
2019-Jun-12 10:54N 55°43' W 005°48'1 3.8
2019-Jun-12 10:30N 55°44' W 005°47'2 3.9
2019-Jun-12 09:55N 55°46' W 005°49'0 0.6
2019-Jun-12 09:18N 55°45' W 005°50'2 7.2
2019-Jun-12 08:57N 55°47' W 005°47'0 0.8
2019-Jun-12 08:30N 55°47' W 005°47'4 5.8
2019-Jun-12 07:49N 55°46' W 005°54'1 1.5
2019-Jun-12 07:27N 55°46' W 005°55'4 3.6
2019-Jun-12 06:24N 55°46' W 006°01'  
2019-Jun-08 12:17N 58°39' W 004°29'3 9.9
2019-Jun-08 12:01N 58°39' W 004°23'510.0
2019-Jun-08 11:30N 58°39' W 004°14'5 9.9
2019-Jun-08 11:00N 58°38' W 004°04'510.1
2019-Jun-08 10:30N 58°38' W 003°55'510.4
2019-Jun-08 10:00N 58°38' W 003°45'510.4
2019-Jun-08 09:30N 58°38' W 003°35'2 1.8
2019-Jun-08 08:22N 58°37' W 003°32'3 7.0
2019-Jun-08 07:53N 58°39' W 003°29'410.5
2019-Jun-08 07:30N 58°42' W 003°22'611.9
2019-Jun-08 06:59N 58°43' W 003°11'613.5
2019-Jun-08 06:31N 58°40' W 002°60'3 6.8
2019-Jun-08 06:00N 58°38' W 002°55'3 5.5
2019-Jun-08 05:30N 58°37' W 002°50'3 6.6
2019-Jun-08 05:00N 58°34' W 002°46'3 6.2
2019-Jun-08 04:30N 58°32' W 002°42'3 6.3
2019-Jun-08 04:00N 58°30' W 002°38'3 5.8
2019-Jun-08 03:30N 58°28' W 002°33'3 6.2
2019-Jun-08 03:00N 58°26' W 002°29'3 6.2
2019-Jun-08 02:30N 58°24' W 002°24'3 6.2
2019-Jun-08 02:00N 58°22' W 002°20'3 6.2
2019-Jun-08 01:30N 58°20' W 002°15'3 6.2
2019-Jun-08 00:57N 58°17' W 002°10'3 6.2
2019-Jun-08 00:27N 58°15' W 002°06'3 6.6
2019-Jun-08 00:00N 58°14' W 002°02'3 6.6
2019-Jun-07 23:30N 58°12' W 001°57'3 2.9
2019-Jun-07 22:33N 58°10' W 001°53'57 3.9
2019-Jun-07 07:55N 58°38' W 000°18'13 7.3
2019-Jun-07 06:06N 58°51' W 000°21'1 7.1
2019-Jun-07 05:58N 58°51' W 000°23'4 4.3
2019-Jun-07 05:04N 58°50' W 000°30'  

Dump ship's entire track history